sensor_id;sensor_type;location;lat;lon;timestamp;pressure;altitude;pressure_sealevel;temperature;humidity
18509;BME280;9383;50.928;12.116;2023-08-07T00:01:12;97793.88;;;14.76;100.00
18509;BME280;9383;50.928;12.116;2023-08-07T00:03:38;97797.50;;;14.75;100.00
18509;BME280;9383;50.928;12.116;2023-08-07T00:06:05;97793.25;;;14.73;100.00
18509;BME280;9383;50.928;12.116;2023-08-07T00:08:31;97792.41;;;14.72;100.00
18509;BME280;9383;50.928;12.116;2023-08-07T00:11:08;97798.75;;;14.70;100.00
18509;BME280;9383;50.928;12.116;2023-08-07T00:13:34;97798.97;;;14.67;100.00
18509;BME280;9383;50.928;12.116;2023-08-07T00:16:01;97797.28;;;14.66;100.00
18509;BME280;9383;50.928;12.116;2023-08-07T00:18:29;97802.63;;;14.66;100.00
18509;BME280;9383;50.928;12.116;2023-08-07T00:20:56;97799.09;;;14.65;100.00
18509;BME280;9383;50.928;12.116;2023-08-07T00:23:22;97805.38;;;14.64;100.00
18509;BME280;9383;50.928;12.116;2023-08-07T00:25:49;97809.88;;;14.63;100.00
18509;BME280;9383;50.928;12.116;2023-08-07T00:28:15;97803.81;;;14.61;100.00
18509;BME280;9383;50.928;12.116;2023-08-07T00:30:42;97809.22;;;14.60;100.00
18509;BME280;9383;50.928;12.116;2023-08-07T00:33:09;97804.75;;;14.60;100.00
18509;BME280;9383;50.928;12.116;2023-08-07T00:35:35;97802.19;;;14.59;100.00
18509;BME280;9383;50.928;12.116;2023-08-07T00:38:01;97803.16;;;14.58;100.00
18509;BME280;9383;50.928;12.116;2023-08-07T00:40:28;97802.41;;;14.56;100.00
18509;BME280;9383;50.928;12.116;2023-08-07T00:42:54;97807.75;;;14.56;100.00
18509;BME280;9383;50.928;12.116;2023-08-07T00:45:21;97798.88;;;14.55;100.00
18509;BME280;9383;50.928;12.116;2023-08-07T00:47:47;97804.34;;;14.54;100.00
18509;BME280;9383;50.928;12.116;2023-08-07T00:50:15;97801.66;;;14.54;100.00
18509;BME280;9383;50.928;12.116;2023-08-07T00:52:41;97812.44;;;14.52;100.00
18509;BME280;9383;50.928;12.116;2023-08-07T00:55:08;97804.53;;;14.51;100.00
18509;BME280;9383;50.928;12.116;2023-08-07T00:57:35;97802.72;;;14.51;100.00
18509;BME280;9383;50.928;12.116;2023-08-07T01:00:02;97800.91;;;14.52;100.00
18509;BME280;9383;50.928;12.116;2023-08-07T01:02:29;97800.91;;;14.52;100.00
18509;BME280;9383;50.928;12.116;2023-08-07T01:04:56;97737.16;;;14.10;100.00
18509;BME280;9383;50.928;12.116;2023-08-07T01:07:23;97812.66;;;14.49;100.00
18509;BME280;9383;50.928;12.116;2023-08-07T01:09:49;97804.75;;;14.47;100.00
18509;BME280;9383;50.928;12.116;2023-08-07T01:12:19;97804.75;;;14.47;100.00
18509;BME280;9383;50.928;12.116;2023-08-07T01:14:56;97808.38;;;14.46;100.00
18509;BME280;9383;50.928;12.116;2023-08-07T01:17:25;97802.19;;;14.46;100.00
18509;BME280;9383;50.928;12.116;2023-08-07T01:19:52;97807.63;;;14.44;100.00
18509;BME280;9383;50.928;12.116;2023-08-07T01:22:20;97800.59;;;14.43;100.00
18509;BME280;9383;50.928;12.116;2023-08-07T01:24:49;97810.53;;;14.41;100.00
18509;BME280;9383;50.928;12.116;2023-08-07T01:32:54;97809.75;;;14.39;100.00
18509;BME280;9383;50.928;12.116;2023-08-07T01:35:27;97800.91;;;14.39;100.00
18509;BME280;9383;50.928;12.116;2023-08-07T01:37:57;97807.94;;;14.40;100.00
18509;BME280;9383;50.928;12.116;2023-08-07T01:40:26;97811.69;;;14.37;100.00
18509;BME280;9383;50.928;12.116;2023-08-07T01:42:53;97808.91;;;14.39;100.00
18509;BME280;9383;50.928;12.116;2023-08-07T01:45:28;97809.00;;;14.37;100.00
18509;BME280;9383;50.928;12.116;2023-08-07T01:47:55;97810.94;;;14.35;100.00
18509;BME280;9383;50.928;12.116;2023-08-07T01:50:23;97814.56;;;14.34;100.00
18509;BME280;9383;50.928;12.116;2023-08-07T01:52:50;97810.94;;;14.35;100.00
18509;BME280;9383;50.928;12.116;2023-08-07T01:55:18;97817.97;;;14.36;100.00
18509;BME280;9383;50.928;12.116;2023-08-07T01:57:45;97816.25;;;14.35;100.00
18509;BME280;9383;50.928;12.116;2023-08-07T02:00:12;97814.56;;;14.34;100.00
18509;BME280;9383;50.928;12.116;2023-08-07T02:02:38;97814.56;;;14.34;100.00
18509;BME280;9383;50.928;12.116;2023-08-07T02:05:05;97822.56;;;14.34;100.00
18509;BME280;9383;50.928;12.116;2023-08-07T02:07:32;97822.56;;;14.34;100.00
18509;BME280;9383;50.928;12.116;2023-08-07T02:09:59;97819.88;;;14.34;100.00
18509;BME280;9383;50.928;12.116;2023-08-07T02:12:25;97824.25;;;14.35;100.00
18509;BME280;9383;50.928;12.116;2023-08-07T02:14:53;97828.72;;;14.34;100.00
18509;BME280;9383;50.928;12.116;2023-08-07T02:17:21;97826.94;;;14.35;100.00
18509;BME280;9383;50.928;12.116;2023-08-07T02:19:48;97824.34;;;14.33;100.00
18509;BME280;9383;50.928;12.116;2023-08-07T02:22:15;97828.84;;;14.33;100.00
18509;BME280;9383;50.928;12.116;2023-08-07T02:24:41;97824.47;;;14.32;100.00
18509;BME280;9383;50.928;12.116;2023-08-07T02:27:08;97826.28;;;14.31;100.00
18509;BME280;9383;50.928;12.116;2023-08-07T02:29:35;97827.97;;;14.32;100.00
18509;BME280;9383;50.928;12.116;2023-08-07T02:32:02;97835.03;;;14.33;100.00
18509;BME280;9383;50.928;12.116;2023-08-07T02:34:30;97833.22;;;14.34;100.00
18509;BME280;9383;50.928;12.116;2023-08-07T02:36:56;97833.31;;;14.32;100.00
18509;BME280;9383;50.928;12.116;2023-08-07T02:39:24;97834.19;;;14.33;100.00
18509;BME280;9383;50.928;12.116;2023-08-07T02:41:50;97838.66;;;14.32;100.00
18509;BME280;9383;50.928;12.116;2023-08-07T02:44:17;97839.50;;;14.33;100.00
18509;BME280;9383;50.928;12.116;2023-08-07T02:46:44;97830.66;;;14.32;100.00
18509;BME280;9383;50.928;12.116;2023-08-07T02:49:11;97841.44;;;14.31;100.00
18509;BME280;9383;50.928;12.116;2023-08-07T02:51:37;97846.75;;;14.31;100.00
18509;BME280;9383;50.928;12.116;2023-08-07T02:54:04;97843.13;;;14.32;100.00
18509;BME280;9383;50.928;12.116;2023-08-07T02:56:30;97845.81;;;14.32;100.00
18509;BME280;9383;50.928;12.116;2023-08-07T02:58:57;97844.84;;;14.33;100.00
18509;BME280;9383;50.928;12.116;2023-08-07T03:01:24;97849.44;;;14.31;100.00
18509;BME280;9383;50.928;12.116;2023-08-07T03:03:51;97851.34;;;14.29;100.00
18509;BME280;9383;50.928;12.116;2023-08-07T03:06:17;97851.44;;;14.27;100.00
18509;BME280;9383;50.928;12.116;2023-08-07T03:08:44;97865.72;;;14.26;100.00
18509;BME280;9383;50.928;12.116;2023-08-07T03:11:10;97857.81;;;14.25;100.00
18509;BME280;9383;50.928;12.116;2023-08-07T03:13:37;97858.03;;;14.21;100.00
18509;BME280;9383;50.928;12.116;2023-08-07T03:16:05;97862.63;;;14.19;100.00
18509;BME280;9383;50.928;12.116;2023-08-07T03:18:32;97861.88;;;14.17;100.00
18509;BME280;9383;50.928;12.116;2023-08-07T03:20:59;97863.78;;;14.15;100.00
18509;BME280;9383;50.928;12.116;2023-08-07T03:23:27;97870.94;;;14.15;100.00
18509;BME280;9383;50.928;12.116;2023-08-07T03:26:05;97867.53;;;14.13;100.00
18509;BME280;9383;50.928;12.116;2023-08-07T03:28:32;97878.06;;;14.14;100.00
18509;BME280;9383;50.928;12.116;2023-08-07T03:30:59;97883.28;;;14.16;100.00
18509;BME280;9383;50.928;12.116;2023-08-07T03:33:26;97883.38;;;14.14;100.00
18509;BME280;9383;50.928;12.116;2023-08-07T03:35:52;97890.63;;;14.12;100.00
18509;BME280;9383;50.928;12.116;2023-08-07T03:38:19;97895.97;;;14.12;100.00
18509;BME280;9383;50.928;12.116;2023-08-07T03:40:46;97895.13;;;14.12;100.00
18509;BME280;9383;50.928;12.116;2023-08-07T03:43:12;97894.38;;;14.10;100.00
18509;BME280;9383;50.928;12.116;2023-08-07T03:45:39;97899.72;;;14.10;100.00
18509;BME280;9383;50.928;12.116;2023-08-07T03:48:06;97899.59;;;14.11;100.00
18509;BME280;9383;50.928;12.116;2023-08-07T03:50:32;97902.16;;;14.13;100.00
18509;BME280;9383;50.928;12.116;2023-08-07T03:53:01;97902.25;;;14.11;100.00
18509;BME280;9383;50.928;12.116;2023-08-07T03:55:27;97897.03;;;14.10;100.00
18509;BME280;9383;50.928;12.116;2023-08-07T03:57:54;97907.88;;;14.06;100.00
18509;BME280;9383;50.928;12.116;2023-08-07T04:00:21;97907.13;;;14.04;100.00
18509;BME280;9383;50.928;12.116;2023-08-07T04:02:47;97904.56;;;14.03;100.00
18509;BME280;9383;50.928;12.116;2023-08-07T04:05:13;97911.72;;;14.02;100.00
18509;BME280;9383;50.928;12.116;2023-08-07T04:07:40;97925.13;;;14.01;100.00
18509;BME280;9383;50.928;12.116;2023-08-07T04:10:06;97926.97;;;14.00;100.00
18509;BME280;9383;50.928;12.116;2023-08-07T04:12:33;97930.56;;;13.99;100.00
18509;BME280;9383;50.928;12.116;2023-08-07T04:15:00;97930.75;;;13.96;100.00
18509;BME280;9383;50.928;12.116;2023-08-07T04:17:26;97928.22;;;13.95;100.00
18509;BME280;9383;50.928;12.116;2023-08-07T04:19:54;97938.00;;;13.94;100.00
18509;BME280;9383;50.928;12.116;2023-08-07T04:22:20;97947.81;;;13.93;100.00
18509;BME280;9383;50.928;12.116;2023-08-07T04:24:47;97946.00;;;13.94;100.00
18509;BME280;9383;50.928;12.116;2023-08-07T04:27:13;97950.47;;;13.93;100.00
18509;BME280;9383;50.928;12.116;2023-08-07T04:29:40;97951.31;;;13.94;100.00
18509;BME280;9383;50.928;12.116;2023-08-07T04:32:07;97946.00;;;13.94;100.00
18509;BME280;9383;50.928;12.116;2023-08-07T04:34:33;97951.31;;;13.94;100.00
18509;BME280;9383;50.928;12.116;2023-08-07T04:37:01;97947.91;;;13.92;100.00
18509;BME280;9383;50.928;12.116;2023-08-07T04:39:28;97957.72;;;13.91;100.00
18509;BME280;9383;50.928;12.116;2023-08-07T04:41:54;97959.59;;;13.89;100.00
18509;BME280;9383;50.928;12.116;2023-08-07T04:44:21;97963.22;;;13.88;100.00
18509;BME280;9383;50.928;12.116;2023-08-07T04:46:47;97964.09;;;13.89;100.00
18509;BME280;9383;50.928;12.116;2023-08-07T04:49:13;97964.09;;;13.89;100.00
18509;BME280;9383;50.928;12.116;2023-08-07T04:51:40;97956.09;;;13.89;100.00
18509;BME280;9383;50.928;12.116;2023-08-07T04:54:06;97971.13;;;13.90;100.00
18509;BME280;9383;50.928;12.116;2023-08-07T04:56:33;97972.94;;;13.89;100.00
18509;BME280;9383;50.928;12.116;2023-08-07T04:58:59;97973.88;;;13.88;100.00
18509;BME280;9383;50.928;12.116;2023-08-07T05:01:27;97977.50;;;13.87;100.00
18509;BME280;9383;50.928;12.116;2023-08-07T05:03:54;97984.66;;;13.87;100.00
18509;BME280;9383;50.928;12.116;2023-08-07T05:06:21;97985.69;;;13.84;100.00
18509;BME280;9383;50.928;12.116;2023-08-07T05:08:47;97988.56;;;13.81;100.00
18509;BME280;9383;50.928;12.116;2023-08-07T05:11:14;97990.47;;;13.79;100.00
18509;BME280;9383;50.928;12.116;2023-08-07T05:13:41;97982.56;;;13.77;100.00
18509;BME280;9383;50.928;12.116;2023-08-07T05:16:07;97988.78;;;13.78;100.00
18509;BME280;9383;50.928;12.116;2023-08-07T05:18:34;97985.31;;;13.76;100.00
18509;BME280;9383;50.928;12.116;2023-08-07T05:21:00;97993.31;;;13.76;100.00
18509;BME280;9383;50.928;12.116;2023-08-07T05:23:27;97986.28;;;13.75;100.00
18509;BME280;9383;50.928;12.116;2023-08-07T05:25:53;97999.59;;;13.75;100.00
18509;BME280;9383;50.928;12.116;2023-08-07T05:28:20;98002.25;;;13.75;100.00
18509;BME280;9383;50.928;12.116;2023-08-07T05:30:46;97996.19;;;13.73;100.00
18509;BME280;9383;50.928;12.116;2023-08-07T05:33:13;98009.50;;;13.73;100.00
18509;BME280;9383;50.928;12.116;2023-08-07T05:35:44;98010.34;;;13.73;100.00
18509;BME280;9383;50.928;12.116;2023-08-07T05:38:11;98008.66;;;13.72;100.00
18509;BME280;9383;50.928;12.116;2023-08-07T05:40:37;98012.25;;;13.71;100.00
18509;BME280;9383;50.928;12.116;2023-08-07T05:43:04;98017.47;;;13.73;100.00
18509;BME280;9383;50.928;12.116;2023-08-07T05:45:30;98005.03;;;13.73;100.00
18509;BME280;9383;50.928;12.116;2023-08-07T05:47:57;98017.47;;;13.73;100.00
18509;BME280;9383;50.928;12.116;2023-08-07T05:50:23;98018.34;;;13.73;100.00
18509;BME280;9383;50.928;12.116;2023-08-07T05:52:50;98015.69;;;13.73;100.00
18509;BME280;9383;50.928;12.116;2023-08-07T05:55:16;98017.47;;;13.73;100.00
18509;BME280;9383;50.928;12.116;2023-08-07T05:57:43;98016.53;;;13.74;100.00
18509;BME280;9383;50.928;12.116;2023-08-07T06:00:09;98021.97;;;13.72;100.00
18509;BME280;9383;50.928;12.116;2023-08-07T06:02:43;98022.81;;;13.73;100.00
18509;BME280;9383;50.928;12.116;2023-08-07T06:05:09;98020.16;;;13.73;100.00
18509;BME280;9383;50.928;12.116;2023-08-07T06:07:39;98037.00;;;13.73;100.00
18509;BME280;9383;50.928;12.116;2023-08-07T06:10:06;98037.75;;;13.75;100.00
18509;BME280;9383;50.928;12.116;2023-08-07T06:12:33;98039.47;;;13.76;100.00
18509;BME280;9383;50.928;12.116;2023-08-07T06:14:59;98040.31;;;13.77;100.00
18509;BME280;9383;50.928;12.116;2023-08-07T06:17:26;98040.22;;;13.78;100.00
18509;BME280;9383;50.928;12.116;2023-08-07T06:19:53;98038.41;;;13.79;100.00
18509;BME280;9383;50.928;12.116;2023-08-07T06:22:19;98041.84;;;13.81;100.00
18509;BME280;9383;50.928;12.116;2023-08-07T06:24:46;98042.69;;;13.82;100.00
18509;BME280;9383;50.928;12.116;2023-08-07T06:27:12;98038.97;;;13.84;100.00
18509;BME280;9383;50.928;12.116;2023-08-07T06:29:38;98046.00;;;13.85;100.00
18509;BME280;9383;50.928;12.116;2023-08-07T06:32:05;98043.25;;;13.87;100.00
18509;BME280;9383;50.928;12.116;2023-08-07T06:34:32;98045.81;;;13.88;100.00
18509;BME280;9383;50.928;12.116;2023-08-07T06:36:59;98050.09;;;13.91;100.00
18509;BME280;9383;50.928;12.116;2023-08-07T06:39:25;98055.34;;;13.92;100.00
18509;BME280;9383;50.928;12.116;2023-08-07T06:41:52;98045.44;;;13.95;100.00
18509;BME280;9383;50.928;12.116;2023-08-07T06:44:18;98047.91;;;13.98;100.00
18509;BME280;9383;50.928;12.116;2023-08-07T06:46:45;98058.34;;;14.01;100.00
18509;BME280;9383;50.928;12.116;2023-08-07T06:49:11;98055.53;;;14.04;100.00
18509;BME280;9383;50.928;12.116;2023-08-07T06:51:38;98056.28;;;14.06;100.00
18509;BME280;9383;50.928;12.116;2023-08-07T06:54:04;98056.06;;;14.09;100.00
18509;BME280;9383;50.928;12.116;2023-08-07T06:56:31;98070.06;;;14.13;100.00
18509;BME280;9383;50.928;12.116;2023-08-07T06:58:58;98057.41;;;14.16;100.00
18509;BME280;9383;50.928;12.116;2023-08-07T07:01:24;98063.38;;;14.20;100.00
18509;BME280;9383;50.928;12.116;2023-08-07T07:03:51;98070.31;;;14.23;100.00
18509;BME280;9383;50.928;12.116;2023-08-07T07:06:19;98071.94;;;14.25;100.00
18509;BME280;9383;50.928;12.116;2023-08-07T07:08:47;98080.59;;;14.29;100.00
18509;BME280;9383;50.928;12.116;2023-08-07T07:11:13;98076.88;;;14.31;100.00
18509;BME280;9383;50.928;12.116;2023-08-07T07:13:41;98090.00;;;14.34;100.00
18509;BME280;9383;50.928;12.116;2023-08-07T07:16:08;98081.81;;;14.38;100.00
18509;BME280;9383;50.928;12.116;2023-08-07T07:18:34;98088.84;;;14.39;100.00
18509;BME280;9383;50.928;12.116;2023-08-07T07:21:01;98096.56;;;14.43;100.00
18509;BME280;9383;50.928;12.116;2023-08-07T07:23:28;98101.69;;;14.46;100.00
18509;BME280;9383;50.928;12.116;2023-08-07T07:25:54;98098.72;;;14.51;100.00
18509;BME280;9383;50.928;12.116;2023-08-07T07:28:21;98101.28;;;14.53;100.00
18509;BME280;9383;50.928;12.116;2023-08-07T07:30:48;98104.59;;;14.56;100.00
18509;BME280;9383;50.928;12.116;2023-08-07T07:33:15;98108.03;;;14.58;100.00
18509;BME280;9383;50.928;12.116;2023-08-07T07:35:42;98110.59;;;14.60;100.00
18509;BME280;9383;50.928;12.116;2023-08-07T07:38:08;98106.03;;;14.62;100.00
18509;BME280;9383;50.928;12.116;2023-08-07T07:40:36;98101.56;;;14.62;100.00
18509;BME280;9383;50.928;12.116;2023-08-07T07:43:03;98104.09;;;14.64;100.00
18509;BME280;9383;50.928;12.116;2023-08-07T07:45:30;98116.47;;;14.65;100.00
18509;BME280;9383;50.928;12.116;2023-08-07T07:47:56;98125.25;;;14.67;100.00
18509;BME280;9383;50.928;12.116;2023-08-07T07:50:23;98117.16;;;14.69;100.00
18509;BME280;9383;50.928;12.116;2023-08-07T07:52:49;98116.09;;;14.71;100.00
18509;BME280;9383;50.928;12.116;2023-08-07T07:55:16;98117.63;;;14.75;100.00
18509;BME280;9383;50.928;12.116;2023-08-07T07:57:43;98115.53;;;14.81;100.00
18509;BME280;9383;50.928;12.116;2023-08-07T08:00:11;98132.84;;;14.88;100.00
18509;BME280;9383;50.928;12.116;2023-08-07T08:02:40;98125.94;;;14.98;100.00
18509;BME280;9383;50.928;12.116;2023-08-07T08:05:07;98131.63;;;15.07;100.00
18509;BME280;9383;50.928;12.116;2023-08-07T08:07:35;98136.53;;;15.13;100.00
18509;BME280;9383;50.928;12.116;2023-08-07T08:10:01;98140.63;;;15.18;100.00
18509;BME280;9383;50.928;12.116;2023-08-07T08:12:30;98143.94;;;15.22;100.00
18509;BME280;9383;50.928;12.116;2023-08-07T08:14:57;98150.03;;;15.24;100.00
18509;BME280;9383;50.928;12.116;2023-08-07T08:17:23;98152.59;;;15.26;100.00
18509;BME280;9383;50.928;12.116;2023-08-07T08:19:50;98154.41;;;15.25;100.00
18509;BME280;9383;50.928;12.116;2023-08-07T08:22:17;98146.41;;;15.25;100.00
18509;BME280;9383;50.928;12.116;2023-08-07T08:24:43;98154.41;;;15.25;100.00
18509;BME280;9383;50.928;12.116;2023-08-07T08:27:13;98160.50;;;15.27;100.00
18509;BME280;9383;50.928;12.116;2023-08-07T08:29:39;98157.81;;;15.27;100.00
18509;BME280;9383;50.928;12.116;2023-08-07T08:32:06;98163.91;;;15.29;100.00
18509;BME280;9383;50.928;12.116;2023-08-07T08:34:33;98159.34;;;15.31;100.00
18509;BME280;9383;50.928;12.116;2023-08-07T08:36:59;98163.44;;;15.37;100.00
18509;BME280;9383;50.928;12.116;2023-08-07T08:39:26;98165.75;;;15.42;100.00
18509;BME280;9383;50.928;12.116;2023-08-07T08:41:52;98169.97;;;15.46;100.00
18509;BME280;9383;50.928;12.116;2023-08-07T08:44:20;98174.13;;;15.50;100.00
18509;BME280;9383;50.928;12.116;2023-08-07T08:46:51;98168.38;;;15.56;100.00
18509;BME280;9383;50.928;12.116;2023-08-07T08:49:28;98091.91;;;15.15;100.00
18509;BME280;9383;50.928;12.116;2023-08-07T08:51:57;98177.44;;;15.67;100.00
18509;BME280;9383;50.928;12.116;2023-08-07T08:54:25;98177.03;;;15.73;100.00
18509;BME280;9383;50.928;12.116;2023-08-07T08:56:53;98174.06;;;15.78;100.00
18509;BME280;9383;50.928;12.116;2023-08-07T08:59:21;98176.41;;;15.82;100.00
18509;BME280;9383;50.928;12.116;2023-08-07T09:01:49;98171.69;;;15.86;100.00
18509;BME280;9383;50.928;12.116;2023-08-07T09:04:17;98183.94;;;15.90;100.00
18509;BME280;9383;50.928;12.116;2023-08-07T09:06:45;98184.59;;;15.94;100.00
18509;BME280;9383;50.928;12.116;2023-08-07T09:09:14;98184.38;;;15.97;100.00
18509;BME280;9383;50.928;12.116;2023-08-07T09:11:42;98178.56;;;16.03;100.00
18509;BME280;9383;50.928;12.116;2023-08-07T09:14:11;98187.88;;;16.10;100.00
18509;BME280;9383;50.928;12.116;2023-08-07T09:16:41;98180.19;;;16.19;100.00
18509;BME280;9383;50.928;12.116;2023-08-07T09:19:08;98181.34;;;16.27;100.00
18509;BME280;9383;50.928;12.116;2023-08-07T09:21:35;98176.19;;;16.37;100.00
18509;BME280;9383;50.928;12.116;2023-08-07T09:24:02;98180.91;;;16.47;100.00
18509;BME280;9383;50.928;12.116;2023-08-07T09:26:29;98180.44;;;16.53;100.00
18509;BME280;9383;50.928;12.116;2023-08-07T09:28:58;98177.34;;;16.59;99.94
18509;BME280;9383;50.928;12.116;2023-08-07T09:31:26;98188.56;;;16.64;98.94
18509;BME280;9383;50.928;12.116;2023-08-07T09:33:52;98194.44;;;16.69;98.20
18509;BME280;9383;50.928;12.116;2023-08-07T09:36:19;98198.69;;;16.72;97.80
18509;BME280;9383;50.928;12.116;2023-08-07T09:38:52;98194.97;;;16.74;96.46
18509;BME280;9383;50.928;12.116;2023-08-07T09:41:19;98202.88;;;16.76;94.86
18509;BME280;9383;50.928;12.116;2023-08-07T09:43:46;98199.25;;;16.77;94.57
18509;BME280;9383;50.928;12.116;2023-08-07T09:46:12;98200.06;;;16.78;94.42
18509;BME280;9383;50.928;12.116;2023-08-07T09:48:41;98203.50;;;16.80;93.99
18509;BME280;9383;50.928;12.116;2023-08-07T09:51:43;98203.50;;;16.80;92.71
18509;BME280;9383;50.928;12.116;2023-08-07T09:54:13;98208.00;;;16.79;91.94
18509;BME280;9383;50.928;12.116;2023-08-07T09:56:41;98204.59;;;16.77;90.80
18509;BME280;9383;50.928;12.116;2023-08-07T09:59:12;98211.66;;;16.78;91.03
18509;BME280;9383;50.928;12.116;2023-08-07T10:01:39;98207.13;;;16.79;90.37
18509;BME280;9383;50.928;12.116;2023-08-07T10:04:06;98218.59;;;16.81;90.83
18509;BME280;9383;50.928;12.116;2023-08-07T10:06:34;98209.38;;;16.85;91.21
18509;BME280;9383;50.928;12.116;2023-08-07T10:09:01;98177.41;;;16.70;91.68
18509;BME280;9383;50.928;12.116;2023-08-07T10:11:29;98211.59;;;16.91;91.89
18509;BME280;9383;50.928;12.116;2023-08-07T10:13:55;98207.84;;;16.94;92.02
18509;BME280;9383;50.928;12.116;2023-08-07T10:16:25;98214.06;;;16.94;91.66
18509;BME280;9383;50.928;12.116;2023-08-07T10:18:52;98222.94;;;16.95;91.00
18509;BME280;9383;50.928;12.116;2023-08-07T10:21:18;98214.91;;;16.95;90.96
18509;BME280;9383;50.928;12.116;2023-08-07T10:23:46;98216.75;;;16.94;91.01
18509;BME280;9383;50.928;12.116;2023-08-07T10:26:14;98221.97;;;16.96;91.24
18509;BME280;9383;50.928;12.116;2023-08-07T10:28:42;98214.50;;;17.01;91.35
18509;BME280;9383;50.928;12.116;2023-08-07T10:31:12;98219.63;;;17.04;90.23
18509;BME280;9383;50.928;12.116;2023-08-07T10:33:40;98225.50;;;17.09;89.30
18509;BME280;9383;50.928;12.116;2023-08-07T10:36:10;98225.91;;;17.16;89.62
18509;BME280;9383;50.928;12.116;2023-08-07T10:38:37;98232.63;;;17.22;89.68
18509;BME280;9383;50.928;12.116;2023-08-07T10:41:13;98232.06;;;17.29;89.70
18509;BME280;9383;50.928;12.116;2023-08-07T10:43:40;98224.31;;;17.38;89.39
18509;BME280;9383;50.928;12.116;2023-08-07T10:46:12;98227.13;;;17.48;89.84
18509;BME280;9383;50.928;12.116;2023-08-07T10:48:41;98221.19;;;17.55;89.09
18509;BME280;9383;50.928;12.116;2023-08-07T10:51:08;98223.19;;;17.65;87.86
18509;BME280;9383;50.928;12.116;2023-08-07T10:53:45;98221.63;;;17.74;87.16
18509;BME280;9383;50.928;12.116;2023-08-07T10:56:31;98214.50;;;17.85;87.23
18509;BME280;9383;50.928;12.116;2023-08-07T10:59:06;98213.41;;;17.99;86.65
18509;BME280;9383;50.928;12.116;2023-08-07T11:04:08;98227.50;;;18.14;84.21
18509;BME280;9383;50.928;12.116;2023-08-07T11:06:36;98228.94;;;18.19;83.95
18509;BME280;9383;50.928;12.116;2023-08-07T11:09:05;98229.09;;;18.28;84.92
18509;BME280;9383;50.928;12.116;2023-08-07T11:11:41;98230.06;;;18.39;85.14
18509;BME280;9383;50.928;12.116;2023-08-07T11:14:11;98239.25;;;18.48;84.65
18509;BME280;9383;50.928;12.116;2023-08-07T11:16:38;98228.00;;;18.54;85.16
18509;BME280;9383;50.928;12.116;2023-08-07T11:19:05;98221.19;;;18.61;85.16
18509;BME280;9383;50.928;12.116;2023-08-07T11:21:32;98217.25;;;18.65;84.43
18509;BME280;9383;50.928;12.116;2023-08-07T11:24:00;98217.00;;;18.68;84.47
18509;BME280;9383;50.928;12.116;2023-08-07T11:26:26;98214.09;;;18.72;84.04
18509;BME280;9383;50.928;12.116;2023-08-07T11:28:55;98215.81;;;18.73;83.27
18509;BME280;9383;50.928;12.116;2023-08-07T11:31:22;98221.03;;;18.74;82.32
18509;BME280;9383;50.928;12.116;2023-08-07T11:33:57;98225.94;;;18.69;81.26
18509;BME280;9383;50.928;12.116;2023-08-07T11:36:43;98211.53;;;18.70;81.47
18509;BME280;9383;50.928;12.116;2023-08-07T11:39:11;98210.91;;;18.66;80.24
18509;BME280;9383;50.928;12.116;2023-08-07T11:41:38;98228.50;;;18.59;80.63
18509;BME280;9383;50.928;12.116;2023-08-07T11:44:08;98239.97;;;18.61;81.75
18509;BME280;9383;50.928;12.116;2023-08-07T11:46:36;98220.94;;;18.64;82.17
18509;BME280;9383;50.928;12.116;2023-08-07T11:49:02;98225.78;;;18.70;82.16
18509;BME280;9383;50.928;12.116;2023-08-07T11:51:30;98226.19;;;18.77;82.36
18509;BME280;9383;50.928;12.116;2023-08-07T11:53:57;98229.22;;;18.84;82.59
18509;BME280;9383;50.928;12.116;2023-08-07T11:56:25;98218.44;;;18.95;82.66
18509;BME280;9383;50.928;12.116;2023-08-07T11:58:52;98225.66;;;19.06;81.80
18509;BME280;9383;50.928;12.116;2023-08-07T12:01:21;98226.63;;;19.17;81.22
18509;BME280;9383;50.928;12.116;2023-08-07T12:03:54;98228.53;;;19.26;80.55
18509;BME280;9383;50.928;12.116;2023-08-07T12:06:23;98224.38;;;19.33;79.28
18509;BME280;9383;50.928;12.116;2023-08-07T12:08:53;98224.00;;;19.38;79.00
18509;BME280;9383;50.928;12.116;2023-08-07T12:11:20;98220.78;;;19.44;79.23
18509;BME280;9383;50.928;12.116;2023-08-07T12:13:48;98228.47;;;19.49;77.92
18509;BME280;9383;50.928;12.116;2023-08-07T12:16:16;98230.16;;;19.50;74.79
18509;BME280;9383;50.928;12.116;2023-08-07T12:18:48;98227.34;;;19.51;75.11
18509;BME280;9383;50.928;12.116;2023-08-07T12:21:16;98220.28;;;19.50;73.80
18509;BME280;9383;50.928;12.116;2023-08-07T12:23:46;98221.97;;;19.51;73.71
18509;BME280;9383;50.928;12.116;2023-08-07T12:26:15;98227.34;;;19.51;72.73
18509;BME280;9383;50.928;12.116;2023-08-07T12:28:41;98226.38;;;19.52;72.95
18509;BME280;9383;50.928;12.116;2023-08-07T12:31:08;98231.63;;;19.54;72.27
18509;BME280;9383;50.928;12.116;2023-08-07T12:33:35;98226.09;;;19.56;72.38
18509;BME280;9383;50.928;12.116;2023-08-07T12:36:02;98234.91;;;19.58;73.18
18509;BME280;9383;50.928;12.116;2023-08-07T12:38:29;98231.72;;;19.64;72.91
18509;BME280;9383;50.928;12.116;2023-08-07T12:40:55;98234.00;;;19.68;73.33
18509;BME280;9383;50.928;12.116;2023-08-07T12:43:22;98232.50;;;19.76;73.58
18509;BME280;9383;50.928;12.116;2023-08-07T12:45:49;98243.00;;;19.79;71.78
18509;BME280;9383;50.928;12.116;2023-08-07T12:48:16;98248.38;;;19.79;71.16
18509;BME280;9383;50.928;12.116;2023-08-07T12:50:42;98241.53;;;19.75;68.14
18509;BME280;9383;50.928;12.116;2023-08-07T12:53:09;98258.06;;;19.70;67.57
18509;BME280;9383;50.928;12.116;2023-08-07T12:55:36;98262.25;;;19.63;66.27
18509;BME280;9383;50.928;12.116;2023-08-07T12:58:02;98260.94;;;19.57;66.47
18509;BME280;9383;50.928;12.116;2023-08-07T13:00:29;98255.06;;;19.52;67.04
18509;BME280;9383;50.928;12.116;2023-08-07T13:02:55;98264.50;;;19.46;67.72